Time;durP1;ratioP1;P1;durP2;ratioP2;P2;SDS_P1;SDS_P2;PMS_P1;PMS_P2;Temp;Humidity;BMP_temperature;BMP_pressure;BME280_temperature;BME280_humidity;BME280_pressure;Samples;Min_cycle;Max_cycle;Signal;HPM_P1;HPM_P2
2021/07/20 00:00:10;;;;;;;16.85;12.35;;;15.90;99.90;;;;;;5047946;28;20025;-72
2021/07/20 00:02:36;;;;;;;17.95;12.90;;;15.90;99.90;;;;;;5045564;28;20036;-72
2021/07/20 00:05:07;;;;;;;16.92;12.60;;;15.90;99.90;;;;;;5044263;28;20032;-72
2021/07/20 00:07:33;;;;;;;18.13;13.48;;;15.80;99.90;;;;;;5047193;28;20052;-72
2021/07/20 00:09:58;;;;;;;19.48;13.68;;;15.80;99.90;;;;;;5077928;28;20525;-72
2021/07/20 00:12:26;;;;;;;18.42;13.35;;;15.70;99.90;;;;;;5078959;28;20029;-72
2021/07/20 00:14:52;;;;;;;19.23;13.30;;;15.70;99.90;;;;;;5029901;28;20116;-72
2021/07/20 00:17:22;;;;;;;18.83;13.20;;;15.70;99.90;;;;;;5046980;28;20431;-72
2021/07/20 00:19:50;;;;;;;16.65;13.15;;;15.70;99.90;;;;;;5042666;28;20045;-71
2021/07/20 00:22:16;;;;;;;17.00;12.50;;;15.70;99.90;;;;;;5044623;28;20043;-72
2021/07/20 00:24:41;;;;;;;17.35;12.73;;;15.60;99.90;;;;;;5045600;28;20033;-72
2021/07/20 00:27:09;;;;;;;20.23;13.35;;;15.60;99.90;;;;;;5046542;28;20044;-72
2021/07/20 00:29:41;;;;;;;19.52;13.77;;;15.60;99.90;;;;;;5045659;28;20072;-72
2021/07/20 00:32:10;;;;;;;18.40;13.02;;;15.60;99.90;;;;;;5046296;28;20045;-72
2021/07/20 00:34:40;;;;;;;19.45;13.02;;;15.50;99.90;;;;;;5045572;28;20060;-72
2021/07/20 00:37:06;;;;;;;19.33;12.93;;;15.50;99.90;;;;;;5044339;28;20108;-72
2021/07/20 00:39:34;;;;;;;17.10;12.70;;;15.50;99.90;;;;;;5044875;28;20111;-72
2021/07/20 00:42:00;;;;;;;18.77;13.85;;;15.50;99.90;;;;;;5043672;28;20037;-72
2021/07/20 00:44:26;;;;;;;17.52;13.25;;;15.50;99.90;;;;;;5045435;28;20103;-72
2021/07/20 00:46:51;;;;;;;18.75;12.48;;;15.40;99.90;;;;;;5046455;28;20036;-72
2021/07/20 00:49:17;;;;;;;17.45;12.55;;;15.50;99.90;;;;;;5045380;28;22023;-73
2021/07/20 00:51:43;;;;;;;19.65;13.68;;;15.40;99.90;;;;;;5045655;28;20502;-72
2021/07/20 00:54:09;;;;;;;18.33;12.80;;;15.40;99.90;;;;;;5047152;28;21925;-72
2021/07/20 00:56:34;;;;;;;17.27;12.90;;;15.40;99.90;;;;;;5045027;28;20028;-72
2021/07/20 00:59:03;;;;;;;19.90;13.82;;;15.40;99.90;;;;;;5045992;28;20555;-72
2021/07/20 01:01:28;;;;;;;19.83;12.60;;;15.40;99.90;;;;;;5045794;28;20037;-72
2021/07/20 01:03:56;;;;;;;18.27;12.88;;;15.30;99.90;;;;;;5078037;28;20646;-72
2021/07/20 01:06:22;;;;;;;21.58;13.25;;;15.30;99.90;;;;;;5044261;28;20459;-73
2021/07/20 01:08:49;;;;;;;18.73;12.82;;;15.20;99.90;;;;;;5047721;28;20040;-72
2021/07/20 01:11:14;;;;;;;19.85;13.43;;;15.20;99.90;;;;;;5049285;28;20490;-72
2021/07/20 01:13:40;;;;;;;20.17;13.48;;;15.20;99.90;;;;;;5049521;28;20112;-72
2021/07/20 01:16:05;;;;;;;19.17;13.00;;;15.20;99.90;;;;;;5031939;28;20040;-73
2021/07/20 01:18:31;;;;;;;21.02;13.20;;;15.20;99.90;;;;;;5046867;28;20166;-72
2021/07/20 01:20:57;;;;;;;19.25;13.35;;;15.20;99.90;;;;;;5049590;28;20033;-72
2021/07/20 01:23:34;;;;;;;18.42;13.02;;;15.20;99.90;;;;;;5064683;28;20063;-72
2021/07/20 01:25:59;;;;;;;20.30;12.68;;;15.10;99.90;;;;;;5049705;28;20483;-72
2021/07/20 01:28:25;;;;;;;19.15;13.93;;;15.10;99.90;;;;;;5031406;28;20039;-72
2021/07/20 01:30:57;;;;;;;18.13;13.23;;;15.10;99.90;;;;;;5014733;28;20029;-72
2021/07/20 01:33:22;;;;;;;19.85;14.18;;;15.10;99.90;;;;;;5032501;28;20052;-72
2021/07/20 01:35:51;;;;;;;20.10;13.70;;;15.00;99.90;;;;;;5065088;28;20431;-72
2021/07/20 01:38:20;;;;;;;20.77;13.38;;;15.00;99.90;;;;;;5048645;28;20056;-72
2021/07/20 01:40:48;;;;;;;18.08;12.27;;;15.00;99.90;;;;;;5079935;28;20115;-72
2021/07/20 01:43:14;;;;;;;18.85;13.25;;;15.00;99.90;;;;;;5030621;28;20099;-72
2021/07/20 01:45:39;;;;;;;19.00;12.95;;;14.90;99.90;;;;;;5064866;28;20025;-72
2021/07/20 01:48:05;;;;;;;20.67;13.13;;;14.90;99.90;;;;;;5047435;28;20568;-72
2021/07/20 01:50:36;;;;;;;18.02;12.95;;;14.90;99.90;;;;;;5048551;28;20047;-72
2021/07/20 01:53:03;;;;;;;22.90;14.07;;;14.90;99.90;;;;;;5080643;28;20247;-72
2021/07/20 01:55:30;;;;;;;21.45;13.48;;;14.90;99.90;;;;;;5080627;28;20925;-72
2021/07/20 01:58:04;;;;;;;18.42;13.25;;;14.90;99.90;;;;;;5064523;28;20052;-73
2021/07/20 02:00:32;;;;;;;21.63;13.73;;;14.90;99.90;;;;;;5064735;28;20057;-72
2021/07/20 02:03:30;;;;;;;17.65;12.43;;;14.80;99.90;;;;;;5049122;28;20107;-72
2021/07/20 02:08:40;;;;;;;18.90;13.40;;;14.80;99.90;;;;;;5047887;28;20650;-72
2021/07/20 02:11:11;;;;;;;19.25;13.45;;;14.80;99.90;;;;;;5034520;28;20032;-72
2021/07/20 02:13:43;;;;;;;21.13;12.90;;;14.80;99.90;;;;;;5067413;28;20101;-72
2021/07/20 02:16:10;;;;;;;19.90;12.85;;;14.70;99.90;;;;;;5050606;28;20260;-72
2021/07/20 02:18:38;;;;;;;19.45;13.05;;;14.70;99.90;;;;;;5068293;28;20031;-71
2021/07/20 02:21:07;;;;;;;18.73;13.57;;;14.70;99.90;;;;;;5067381;28;20028;-70
2021/07/20 02:23:35;;;;;;;19.80;13.48;;;14.70;99.90;;;;;;5050534;28;20111;-71
2021/07/20 02:26:04;;;;;;;19.27;13.25;;;14.70;99.90;;;;;;5065769;28;20155;-70
2021/07/20 02:28:32;;;;;;;19.00;13.70;;;14.70;99.90;;;;;;5067830;28;20028;-71
2021/07/20 02:31:00;;;;;;;19.77;13.98;;;14.60;99.90;;;;;;5050569;28;20032;-70
2021/07/20 02:33:28;;;;;;;20.42;13.40;;;14.70;99.90;;;;;;5050557;28;20025;-71
2021/07/20 02:35:54;;;;;;;18.70;12.93;;;14.70;99.90;;;;;;5067280;28;20047;-71
2021/07/20 02:38:22;;;;;;;19.48;12.70;;;14.60;99.90;;;;;;5048703;28;20024;-71
2021/07/20 02:40:49;;;;;;;17.60;13.10;;;14.60;99.90;;;;;;5035839;28;20028;-71
2021/07/20 02:43:15;;;;;;;17.45;11.57;;;14.70;99.90;;;;;;5066722;28;20035;-71
2021/07/20 02:45:43;;;;;;;17.90;13.48;;;14.60;99.90;;;;;;5066399;28;20035;-70
2021/07/20 02:48:11;;;;;;;20.02;12.88;;;14.60;99.90;;;;;;5083583;28;20558;-70
2021/07/20 02:50:36;;;;;;;17.15;12.65;;;14.60;99.90;;;;;;5081751;28;20024;-71
2021/07/20 02:53:02;;;;;;;19.13;12.75;;;14.60;99.90;;;;;;5032607;28;20086;-71
2021/07/20 02:55:28;;;;;;;17.88;12.75;;;14.50;99.90;;;;;;5024527;28;20036;-70
2021/07/20 02:57:56;;;;;;;17.02;12.38;;;14.50;99.90;;;;;;5050386;28;20047;-70
2021/07/20 03:00:22;;;;;;;17.15;12.23;;;14.50;99.90;;;;;;5033388;28;20438;-71
2021/07/20 03:02:48;;;;;;;18.27;14.05;;;14.50;99.90;;;;;;5049240;28;20025;-70
2021/07/20 03:05:16;;;;;;;18.17;12.63;;;14.50;99.90;;;;;;5049882;28;20039;-71
2021/07/20 03:07:45;;;;;;;17.63;13.05;;;14.40;99.90;;;;;;5068113;28;20032;-71
2021/07/20 03:10:13;;;;;;;19.60;12.75;;;14.40;99.90;;;;;;5066736;28;20035;-71
2021/07/20 03:12:42;;;;;;;21.45;13.10;;;14.40;99.90;;;;;;5067372;28;20143;-71
2021/07/20 03:15:09;;;;;;;17.92;12.98;;;14.40;99.90;;;;;;5049073;28;20142;-70
2021/07/20 03:17:34;;;;;;;17.60;13.27;;;14.30;99.90;;;;;;5048581;28;20020;-71
2021/07/20 03:20:03;;;;;;;18.50;11.63;;;14.30;99.90;;;;;;5049752;28;20043;-71
2021/07/20 03:22:29;;;;;;;17.73;12.43;;;14.30;99.90;;;;;;5033452;28;20032;-70
2021/07/20 03:25:02;;;;;;;19.30;12.98;;;14.20;99.90;;;;;;5048108;28;20111;-70
2021/07/20 03:27:31;;;;;;;20.33;13.02;;;14.20;99.90;;;;;;5048771;28;20123;-71
2021/07/20 03:29:58;;;;;;;18.80;12.68;;;14.30;99.90;;;;;;5050105;28;20056;-71
2021/07/20 03:32:25;;;;;;;19.38;12.90;;;14.30;99.90;;;;;;5049792;28;20494;-71
2021/07/20 03:34:51;;;;;;;18.42;13.07;;;14.20;99.90;;;;;;5050035;28;21620;-71
2021/07/20 03:37:19;;;;;;;17.52;12.85;;;14.20;99.90;;;;;;5049823;28;20035;-71
2021/07/20 03:39:45;;;;;;;19.67;13.43;;;14.20;99.90;;;;;;5032699;28;20472;-71
2021/07/20 03:42:10;;;;;;;18.13;12.68;;;14.20;99.90;;;;;;5050359;28;20039;-71
2021/07/20 03:44:36;;;;;;;18.33;12.02;;;14.20;99.90;;;;;;5066678;28;20423;-71
2021/07/20 03:47:05;;;;;;;17.35;12.60;;;14.20;99.90;;;;;;5049674;28;20043;-71
2021/07/20 03:49:30;;;;;;;17.98;12.63;;;14.10;99.90;;;;;;5067203;28;20361;-71
2021/07/20 03:51:58;;;;;;;17.17;12.60;;;14.10;99.90;;;;;;5048765;28;20020;-70
2021/07/20 03:54:30;;;;;;;17.27;12.63;;;14.20;99.90;;;;;;5050523;28;20067;-70
2021/07/20 03:56:55;;;;;;;20.92;12.60;;;14.10;99.90;;;;;;5048773;28;20090;-71
2021/07/20 03:59:22;;;;;;;20.13;12.63;;;14.10;99.90;;;;;;5033098;28;20043;-71
2021/07/20 04:01:50;;;;;;;18.20;13.05;;;14.10;99.90;;;;;;5049255;28;20028;-70
2021/07/20 04:04:19;;;;;;;16.70;12.13;;;14.10;99.90;;;;;;5043252;28;20032;-70
2021/07/20 04:06:47;;;;;;;15.77;12.27;;;14.10;99.90;;;;;;5049234;28;20453;-70
2021/07/20 04:09:12;;;;;;;18.17;11.63;;;14.20;99.90;;;;;;5049247;28;20465;-70
2021/07/20 04:11:39;;;;;;;16.70;11.60;;;14.10;99.90;;;;;;5067605;28;20085;-71
2021/07/20 04:14:05;;;;;;;17.85;13.07;;;14.10;99.90;;;;;;5047458;28;20425;-71
2021/07/20 04:16:31;;;;;;;18.38;11.82;;;14.10;99.90;;;;;;5067078;28;20017;-70
2021/07/20 04:18:56;;;;;;;16.00;12.00;;;14.10;99.90;;;;;;5048633;28;20077;-70
2021/07/20 04:21:24;;;;;;;17.63;12.27;;;14.10;99.90;;;;;;5030525;28;20042;-70
2021/07/20 04:23:50;;;;;;;18.35;12.52;;;14.10;99.90;;;;;;5066617;28;20067;-70
2021/07/20 04:26:16;;;;;;;18.98;13.52;;;14.20;99.90;;;;;;5049477;28;20116;-70
2021/07/20 04:28:41;;;;;;;18.52;12.75;;;14.20;99.90;;;;;;5035227;28;20032;-71
2021/07/20 04:31:07;;;;;;;17.85;12.82;;;14.20;99.90;;;;;;5066141;28;20024;-71
2021/07/20 04:33:33;;;;;;;20.33;14.02;;;14.20;99.90;;;;;;5036952;28;20028;-71
2021/07/20 04:35:59;;;;;;;21.33;13.52;;;14.30;99.90;;;;;;5047856;28;20032;-71
2021/07/20 04:38:26;;;;;;;18.00;13.35;;;14.30;99.90;;;;;;5082286;28;20045;-72
2021/07/20 04:40:54;;;;;;;16.98;12.45;;;14.30;99.90;;;;;;5048045;28;20454;-72
2021/07/20 04:43:21;;;;;;;17.92;12.70;;;14.40;99.90;;;;;;5022088;28;20040;-71
2021/07/20 04:45:49;;;;;;;15.82;12.02;;;14.40;99.90;;;;;;5069714;28;20028;-71
2021/07/20 04:48:15;;;;;;;17.80;11.95;;;14.40;99.90;;;;;;5052442;28;20035;-71
2021/07/20 04:50:44;;;;;;;20.13;12.82;;;14.40;99.90;;;;;;5086001;28;20146;-71
2021/07/20 04:53:10;;;;;;;17.48;12.40;;;14.50;99.90;;;;;;5052657;28;20047;-71
2021/07/20 04:55:38;;;;;;;18.75;12.93;;;14.50;99.90;;;;;;5068416;28;20346;-71
2021/07/20 04:58:04;;;;;;;16.58;12.38;;;14.50;99.90;;;;;;5052625;28;20044;-71
2021/07/20 05:00:29;;;;;;;18.13;12.23;;;14.60;99.90;;;;;;5051569;28;20370;-71
2021/07/20 05:02:57;;;;;;;17.65;12.38;;;14.60;99.90;;;;;;5050034;28;20028;-71
2021/07/20 05:05:25;;;;;;;18.75;12.68;;;14.60;99.90;;;;;;5036598;28;20033;-70
2021/07/20 05:07:52;;;;;;;20.90;13.98;;;14.60;99.90;;;;;;5053117;28;20409;-71
2021/07/20 05:10:18;;;;;;;22.17;13.70;;;14.70;99.90;;;;;;5051799;28;20115;-70
2021/07/20 05:12:44;;;;;;;18.73;13.77;;;14.70;99.90;;;;;;5052816;28;20127;-70
2021/07/20 05:15:14;;;;;;;16.65;12.65;;;14.70;99.90;;;;;;5069765;28;20028;-70
2021/07/20 05:17:40;;;;;;;17.90;13.68;;;14.80;99.90;;;;;;5069317;28;20119;-71
2021/07/20 05:20:08;;;;;;;21.50;13.20;;;14.80;99.90;;;;;;5069041;28;20058;-70
2021/07/20 05:22:34;;;;;;;18.98;13.23;;;14.80;99.90;;;;;;5070873;28;20035;-71
2021/07/20 05:25:04;;;;;;;19.83;13.18;;;14.80;99.90;;;;;;5066845;28;20533;-70
2021/07/20 05:27:31;;;;;;;18.63;13.27;;;14.90;99.90;;;;;;5034552;28;20420;-71
2021/07/20 05:29:57;;;;;;;18.30;12.85;;;14.90;99.90;;;;;;5034614;28;20032;-71
2021/07/20 05:32:23;;;;;;;17.58;12.75;;;15.00;99.90;;;;;;5051525;28;20638;-73
2021/07/20 05:34:51;;;;;;;17.92;11.55;;;15.00;99.90;;;;;;5033640;28;20078;-70
2021/07/20 05:37:20;;;;;;;19.35;11.88;;;15.00;99.90;;;;;;5068105;28;20028;-71
2021/07/20 05:39:47;;;;;;;17.80;12.52;;;15.00;99.90;;;;;;5052192;28;20028;-71
2021/07/20 05:42:13;;;;;;;17.35;11.27;;;15.10;99.90;;;;;;5051841;28;20335;-70
2021/07/20 05:44:40;;;;;;;19.20;11.93;;;15.10;99.90;;;;;;5034135;28;20031;-71
2021/07/20 05:47:07;;;;;;;16.23;11.32;;;15.20;99.90;;;;;;5052015;28;20039;-70
2021/07/20 05:49:35;;;;;;;17.33;11.85;;;15.20;99.90;;;;;;5051865;28;20036;-70
2021/07/20 05:52:03;;;;;;;16.48;11.32;;;15.20;99.90;;;;;;5052220;28;20032;-70
2021/07/20 05:54:29;;;;;;;17.48;10.88;;;15.20;99.90;;;;;;5053288;28;20028;-71
2021/07/20 05:56:55;;;;;;;17.05;11.00;;;15.30;99.90;;;;;;5051191;28;20529;-71
2021/07/20 05:59:21;;;;;;;15.98;9.63;;;15.30;99.90;;;;;;5067912;28;20048;-71
2021/07/20 06:01:46;;;;;;;15.23;10.43;;;15.30;99.90;;;;;;5068767;28;20059;-71
2021/07/20 06:04:14;;;;;;;17.20;9.98;;;15.40;99.90;;;;;;5051709;28;20158;-71
2021/07/20 06:06:42;;;;;;;14.82;10.10;;;15.40;99.90;;;;;;5051727;28;20390;-70
2021/07/20 06:09:12;;;;;;;15.45;10.07;;;15.50;99.90;;;;;;5034520;28;20036;-70
2021/07/20 06:11:40;;;;;;;16.52;10.40;;;15.50;99.90;;;;;;5039216;28;20048;-71
2021/07/20 06:14:08;;;;;;;16.50;10.10;;;15.50;99.90;;;;;;5050949;28;20028;-70
2021/07/20 06:16:37;;;;;;;15.43;9.70;;;15.50;99.90;;;;;;5066471;28;20032;-67
2021/07/20 06:19:04;;;;;;;15.80;10.50;;;15.60;99.90;;;;;;5065100;28;20533;-67
2021/07/20 06:21:33;;;;;;;16.08;10.23;;;15.60;99.90;;;;;;5038371;28;20465;-74
2021/07/20 06:23:59;;;;;;;16.42;10.18;;;15.60;99.90;;;;;;5049475;28;21020;-73
2021/07/20 06:26:25;;;;;;;15.10;9.52;;;15.70;99.90;;;;;;5041095;28;20032;-73
2021/07/20 06:28:58;;;;;;;13.68;9.73;;;15.70;99.90;;;;;;5037415;28;20350;-73
2021/07/20 06:31:23;;;;;;;16.35;10.23;;;15.70;99.90;;;;;;5040074;28;20369;-73
2021/07/20 06:33:49;;;;;;;15.07;9.63;;;15.70;99.90;;;;;;5031631;28;20093;-73
2021/07/20 06:36:16;;;;;;;15.82;9.63;;;15.70;99.90;;;;;;5082963;28;20211;-70
2021/07/20 06:38:42;;;;;;;15.85;9.88;;;15.80;99.90;;;;;;5067913;28;20028;-69
2021/07/20 06:41:08;;;;;;;16.83;9.45;;;15.80;99.90;;;;;;5046929;28;20032;-73
2021/07/20 06:43:36;;;;;;;17.25;9.60;;;15.80;99.90;;;;;;5064162;28;20024;-73
2021/07/20 06:46:01;;;;;;;13.57;9.52;;;15.80;99.90;;;;;;5019742;28;20032;-73
2021/07/20 06:48:29;;;;;;;14.50;9.32;;;15.90;99.90;;;;;;5081719;28;20538;-72
2021/07/20 06:50:57;;;;;;;12.77;9.50;;;15.90;99.90;;;;;;5031759;28;20040;-73
2021/07/20 06:53:23;;;;;;;15.23;10.00;;;16.00;99.90;;;;;;5081014;28;20048;-73
2021/07/20 06:55:53;;;;;;;12.85;9.20;;;16.00;99.90;;;;;;5048822;28;20157;-73
2021/07/20 06:58:22;;;;;;;13.82;9.82;;;16.00;99.90;;;;;;5080514;28;20116;-73
2021/07/20 07:00:50;;;;;;;13.82;9.63;;;16.10;99.90;;;;;;5063464;28;20075;-70
2021/07/20 07:03:21;;;;;;;14.23;9.68;;;16.20;99.90;;;;;;5046847;28;20036;-69
2021/07/20 07:05:49;;;;;;;17.60;11.90;;;16.20;99.90;;;;;;5018832;28;20473;-73
2021/07/20 07:08:18;;;;;;;15.00;9.75;;;16.30;99.90;;;;;;5050980;28;20074;-73
2021/07/20 07:10:48;;;;;;;13.93;10.10;;;16.30;99.90;;;;;;5047142;28;20032;-73
2021/07/20 07:13:15;;;;;;;16.45;10.07;;;16.40;99.90;;;;;;5048425;28;20024;-73
2021/07/20 07:15:42;;;;;;;14.60;9.43;;;16.40;99.90;;;;;;5047206;28;20440;-73
2021/07/20 07:18:08;;;;;;;15.65;9.30;;;16.50;99.90;;;;;;5081150;28;20103;-73
2021/07/20 07:20:36;;;;;;;13.88;9.77;;;16.50;99.90;;;;;;5029502;28;20116;-73
2021/07/20 07:23:04;;;;;;;15.65;9.38;;;16.60;99.90;;;;;;5064687;28;20170;-73
2021/07/20 07:25:33;;;;;;;17.30;9.75;;;16.60;99.90;;;;;;5062642;28;20016;-73
2021/07/20 07:27:59;;;;;;;15.38;9.77;;;16.70;99.90;;;;;;5063263;28;20048;-73
2021/07/20 07:30:29;;;;;;;14.98;9.32;;;16.70;99.90;;;;;;5064578;28;20029;-73
2021/07/20 07:33:00;;;;;;;15.50;9.48;;;16.80;99.90;;;;;;5081407;28;20544;-74
2021/07/20 07:35:29;;;;;;;16.50;9.82;;;16.80;99.90;;;;;;5065829;28;20470;-73
2021/07/20 07:37:54;;;;;;;13.75;9.60;;;16.90;99.90;;;;;;5082534;28;20063;-73
2021/07/20 07:40:20;;;;;;;13.88;9.68;;;16.90;99.90;;;;;;5050978;28;20588;-73
2021/07/20 07:42:48;;;;;;;16.98;10.02;;;17.00;99.90;;;;;;5046600;28;21870;-74
2021/07/20 07:45:16;;;;;;;14.80;9.95;;;17.10;99.90;;;;;;5029676;28;20036;-73
2021/07/20 07:47:45;;;;;;;15.65;9.80;;;17.30;99.90;;;;;;5063706;28;20146;-71
2021/07/20 07:50:14;;;;;;;50.10;36.38;;;17.40;99.90;;;;;;5047476;28;20119;-70
2021/07/20 07:52:40;;;;;;;15.07;10.75;;;17.50;99.90;;;;;;5063533;28;20032;-72
2021/07/20 07:55:06;;;;;;;16.48;10.15;;;17.70;99.90;;;;;;5047445;28;20060;-73
2021/07/20 07:57:32;;;;;;;13.55;9.60;;;17.90;99.90;;;;;;5063553;28;20107;-73
2021/07/20 07:59:58;;;;;;;14.13;9.52;;;18.10;99.90;;;;;;5047286;28;20403;-73
2021/07/20 08:02:29;;;;;;;14.07;9.13;;;18.30;99.90;;;;;;5063682;28;20123;-73
2021/07/20 08:04:56;;;;;;;16.63;10.23;;;18.30;99.90;;;;;;5063269;28;20094;-73
2021/07/20 08:07:25;;;;;;;13.60;9.38;;;18.50;99.90;;;;;;5046835;28;20024;-73
2021/07/20 08:09:52;;;;;;;13.10;9.02;;;18.50;99.90;;;;;;5063307;28;20047;-73
2021/07/20 08:12:18;;;;;;;13.50;10.10;;;18.50;99.90;;;;;;5063004;28;21212;-72
2021/07/20 08:14:48;;;;;;;14.82;9.85;;;18.70;99.90;;;;;;5064091;28;20028;-73
2021/07/20 08:17:14;;;;;;;14.35;9.75;;;18.80;99.90;;;;;;5050390;28;20125;-70
2021/07/20 08:19:42;;;;;;;12.63;8.80;;;18.90;99.70;;;;;;5050304;28;20496;-71
2021/07/20 08:22:11;;;;;;;13.40;9.35;;;19.10;99.90;;;;;;5049408;28;20376;-70
2021/07/20 08:24:39;;;;;;;14.40;9.43;;;19.20;99.90;;;;;;5068262;28;20863;-70
2021/07/20 08:27:19;;;;;;;13.93;9.40;;;19.30;95.90;;;;;;5068238;28;20055;-70
2021/07/20 08:29:51;;;;;;;15.85;9.60;;;19.30;96.40;;;;;;5065861;28;20070;-70
2021/07/20 08:32:18;;;;;;;14.40;9.20;;;19.20;86.10;;;;;;5035502;28;20024;-70
2021/07/20 08:35:03;;;;;;;12.77;9.30;;;19.30;92.30;;;;;;5050502;28;20016;-71
2021/07/20 08:37:32;;;;;;;13.15;9.30;;;19.30;87.10;;;;;;5050539;28;20043;-69
2021/07/20 08:40:00;;;;;;;12.75;8.60;;;19.40;90.10;;;;;;5083361;28;20040;-70
2021/07/20 08:43:08;;;;;;;15.27;9.45;;;19.50;96.00;;;;;;5084122;28;20039;-70
2021/07/20 08:45:35;;;;;;;14.18;9.90;;;19.60;89.50;;;;;;5047029;28;20473;-69
2021/07/20 08:48:36;;;;;;;13.18;9.27;;;19.50;93.50;;;;;;5050492;28;20071;-70
2021/07/20 08:51:06;;;;;;;14.27;9.20;;;19.40;87.90;;;;;;5019674;28;20064;-71
2021/07/20 08:53:59;;;;;;;12.70;9.90;;;19.40;93.00;;;;;;5051385;28;20453;-71
2021/07/20 08:56:30;;;;;;;11.95;9.02;;;19.40;94.00;;;;;;5053391;28;20047;-70
2021/07/20 08:59:06;;;;;;;13.70;9.13;;;19.40;90.30;;;;;;5049598;28;20122;-71
2021/07/20 09:02:00;;;;;;;12.75;8.88;;;19.40;91.90;;;;;;5083238;28;20051;-72
2021/07/20 09:04:35;;;;;;;11.60;9.00;;;19.50;97.70;;;;;;5067607;28;20629;-71
2021/07/20 09:07:06;;;;;;;13.35;9.07;;;19.60;93.60;;;;;;5050159;28;20032;-71
2021/07/20 09:09:33;;;;;;;15.40;9.13;;;19.60;93.80;;;;;;5018388;28;20075;-71
2021/07/20 09:12:31;;;;;;;14.43;9.02;;;19.70;92.30;;;;;;5066157;28;20039;-70
2021/07/20 09:15:26;;;;;;;13.48;8.50;;;19.60;83.00;;;;;;5048191;28;20163;-67
2021/07/20 09:18:20;;;;;;;11.63;8.77;;;19.70;90.20;;;;;;5066004;28;20032;-70
2021/07/20 09:20:50;;;;;;;13.77;8.82;;;19.70;92.00;;;;;;5068020;28;20486;-71
2021/07/20 09:23:17;;;;;;;13.40;9.70;;;19.70;93.60;;;;;;5065725;28;20040;-71
2021/07/20 09:25:56;;;;;;;14.30;9.10;;;19.60;90.70;;;;;;5049195;28;20031;-71
2021/07/20 09:28:39;;;;;;;13.43;9.32;;;19.60;92.00;;;;;;5064583;28;20514;-71
2021/07/20 09:31:14;;;;;;;12.70;8.82;;;19.70;90.00;;;;;;5034607;28;20024;-71
2021/07/20 09:33:50;;;;;;;14.13;9.32;;;19.80;95.20;;;;;;5082308;28;20033;-71
2021/07/20 09:36:28;;;;;;;13.63;9.07;;;20.00;86.00;;;;;;5050026;28;20051;-71
2021/07/20 09:38:59;;;;;;;12.73;8.90;;;20.20;94.20;;;;;;5069389;28;20051;-72
2021/07/20 09:41:48;;;;;;;13.20;8.85;;;20.30;91.30;;;;;;5068222;28;20036;-73
2021/07/20 09:44:50;;;;;;;13.57;9.40;;;20.40;93.40;;;;;;5083326;28;20028;-71
2021/07/20 09:47:53;;;;;;;13.52;8.57;;;20.50;91.60;;;;;;5063393;28;20032;-71
2021/07/20 09:50:22;;;;;;;11.38;8.57;;;20.40;89.60;;;;;;5066651;28;20029;-71
2021/07/20 09:53:06;;;;;;;12.80;8.80;;;20.10;85.60;;;;;;5064649;28;20024;-70
2021/07/20 09:55:40;;;;;;;14.48;9.48;;;20.20;90.60;;;;;;5053060;28;20037;-71
2021/07/20 09:58:27;;;;;;;14.18;9.13;;;20.30;90.20;;;;;;5082024;28;20127;-70
2021/07/20 10:01:07;;;;;;;12.70;8.80;;;20.50;92.20;;;;;;5082292;28;20027;-71
2021/07/20 10:04:05;;;;;;;12.73;8.48;;;20.60;94.30;;;;;;5081568;28;20048;-71
2021/07/20 10:06:45;;;;;;;13.10;9.15;;;20.60;83.50;;;;;;5082545;28;20025;-71
2021/07/20 10:09:30;;;;;;;11.93;8.65;;;20.70;84.50;;;;;;5032654;28;20191;-71
2021/07/20 10:12:22;;;;;;;11.88;8.25;;;20.80;80.80;;;;;;5083181;28;20081;-71
2021/07/20 10:15:07;;;;;;;13.52;8.38;;;20.90;85.60;;;;;;5083225;28;20338;-71
2021/07/20 10:17:56;;;;;;;10.93;8.60;;;21.00;90.80;;;;;;5064514;28;20086;-71
2021/07/20 10:20:25;;;;;;;11.27;8.13;;;21.00;85.00;;;;;;5048182;28;20028;-71
2021/07/20 10:23:21;;;;;;;12.27;8.05;;;20.90;82.50;;;;;;5048720;28;20040;-70
2021/07/20 10:26:02;;;;;;;11.05;8.20;;;21.10;89.10;;;;;;5080134;28;20130;-71
2021/07/20 10:28:44;;;;;;;11.20;7.57;;;21.10;82.10;;;;;;5061723;28;20032;-72
2021/07/20 10:31:25;;;;;;;12.55;7.95;;;21.20;83.90;;;;;;5062625;28;20729;-70
2021/07/20 10:34:01;;;;;;;10.90;7.68;;;21.20;84.00;;;;;;5049615;28;20033;-71
2021/07/20 10:36:43;;;;;;;10.15;7.57;;;21.20;81.10;;;;;;5049008;28;20063;-67
2021/07/20 10:39:13;;;;;;;11.43;7.65;;;21.30;81.10;;;;;;5066512;28;20162;-69
2021/07/20 10:41:57;;;;;;;10.82;8.43;;;21.30;82.20;;;;;;5081790;28;20071;-71
2021/07/20 10:44:30;;;;;;;11.55;7.70;;;21.40;81.90;;;;;;5081233;28;20025;-71
2021/07/20 10:46:56;;;;;;;13.40;7.65;;;21.50;81.00;;;;;;5081057;28;20529;-71
2021/07/20 10:49:41;;;;;;;11.27;7.93;;;21.50;84.80;;;;;;5046249;28;20041;-71
2021/07/20 10:52:16;;;;;;;11.38;8.18;;;21.60;77.40;;;;;;5052330;28;20400;-72
2021/07/20 10:54:41;;;;;;;12.88;7.75;;;21.60;75.30;;;;;;5065193;28;20024;-71
2021/07/20 10:57:15;;;;;;;11.10;7.70;;;21.70;84.60;;;;;;5064353;28;20076;-71
2021/07/20 11:00:06;;;;;;;11.18;7.80;;;21.70;78.30;;;;;;5065813;28;20028;-72
2021/07/20 11:02:31;;;;;;;11.48;8.30;;;21.80;78.70;;;;;;5080496;28;20043;-72
2021/07/20 11:05:01;;;;;;;11.88;7.88;;;21.80;79.30;;;;;;5065935;28;21910;-71
2021/07/20 11:07:50;;;;;;;10.00;7.35;;;21.90;79.80;;;;;;5064152;28;20568;-70
2021/07/20 11:10:33;;;;;;;10.27;7.87;;;21.90;76.00;;;;;;4700636;28;9999827;-72
2021/07/20 11:13:10;;;;;;;11.50;8.10;;;21.90;73.80;;;;;;5078629;28;20036;-71
2021/07/20 11:15:38;;;;;;;11.20;7.35;;;21.90;74.70;;;;;;5050087;28;20043;-71
2021/07/20 11:18:08;;;;;;;10.48;7.43;;;21.90;75.50;;;;;;5063437;28;20033;-72
2021/07/20 11:20:34;;;;;;;11.13;7.35;;;22.00;76.60;;;;;;5036615;28;20078;-71
2021/07/20 11:23:02;;;;;;;11.90;7.25;;;22.10;74.10;;;;;;5045774;28;20028;-72
2021/07/20 11:25:28;;;;;;;12.30;7.72;;;22.00;71.60;;;;;;5045742;28;20028;-71
2021/07/20 11:27:54;;;;;;;10.35;7.65;;;22.10;71.20;;;;;;5061064;28;20039;-71
2021/07/20 11:30:20;;;;;;;10.85;7.75;;;22.20;76.10;;;;;;5017917;28;21762;-71
2021/07/20 11:32:57;;;;;;;10.35;7.70;;;22.20;74.10;;;;;;5046327;28;20047;-71
2021/07/20 11:35:25;;;;;;;10.68;8.13;;;22.30;73.40;;;;;;5064547;28;20032;-72
2021/07/20 11:38:14;;;;;;;11.50;7.40;;;22.20;72.10;;;;;;5046517;28;20033;-72
2021/07/20 11:40:51;;;;;;;10.38;7.88;;;22.40;78.40;;;;;;5040993;28;20123;-72
2021/07/20 11:43:21;;;;;;;9.70;7.57;;;22.50;73.30;;;;;;5063193;28;20036;-72
2021/07/20 11:45:58;;;;;;;10.27;7.65;;;22.60;75.20;;;;;;5049131;28;20042;-71
2021/07/20 11:48:26;;;;;;;10.70;7.22;;;22.60;75.70;;;;;;5062192;28;20028;-72
2021/07/20 11:51:13;;;;;;;11.65;7.55;;;22.60;72.60;;;;;;5060484;28;20132;-67
2021/07/20 11:53:55;;;;;;;11.00;7.47;;;22.60;71.40;;;;;;5048148;28;21829;-68
2021/07/20 11:56:32;;;;;;;10.43;7.68;;;22.70;73.10;;;;;;5077628;28;20029;-72
2021/07/20 11:59:25;;;;;;;10.05;7.28;;;22.70;69.70;;;;;;5034734;28;20052;-72
2021/07/20 12:02:28;;;;;;;13.20;7.43;;;22.70;72.70;;;;;;5063767;28;20032;-73
2021/07/20 12:05:15;;;;;;;10.68;7.50;;;22.80;71.30;;;;;;5063708;28;20124;-72
2021/07/20 12:08:12;;;;;;;10.75;7.38;;;22.90;72.20;;;;;;4697249;28;10000372;-72
2021/07/20 12:10:45;;;;;;;12.27;7.47;;;22.90;69.30;;;;;;5063266;28;20115;-71
2021/07/20 12:13:19;;;;;;;12.30;8.10;;;23.00;72.60;;;;;;5063882;28;20417;-73
2021/07/20 12:15:45;;;;;;;11.38;7.45;;;23.00;72.20;;;;;;5062243;28;20028;-72
2021/07/20 12:18:11;;;;;;;11.55;7.70;;;23.10;70.50;;;;;;5045010;28;20628;-72
2021/07/20 12:20:36;;;;;;;10.63;7.50;;;23.20;71.40;;;;;;5063694;28;20024;-72
2021/07/20 12:23:06;;;;;;;10.85;7.65;;;23.10;68.60;;;;;;5061635;28;20043;-72
2021/07/20 12:25:34;;;;;;;10.50;7.63;;;23.20;68.70;;;;;;5061731;28;20043;-71
2021/07/20 12:28:00;;;;;;;11.07;7.43;;;23.30;68.90;;;;;;5079903;28;20107;-71
2021/07/20 12:30:27;;;;;;;10.77;7.65;;;23.40;73.10;;;;;;5064388;28;20056;-73
2021/07/20 12:32:53;;;;;;;9.80;7.68;;;23.40;70.80;;;;;;5065001;28;20718;-72
2021/07/20 12:35:20;;;;;;;10.30;7.45;;;23.50;71.00;;;;;;5047708;28;20064;-71
2021/07/20 12:38:00;;;;;;;12.32;7.68;;;23.50;71.10;;;;;;5082466;28;20671;-72
2021/07/20 12:40:26;;;;;;;9.15;7.03;;;23.50;65.90;;;;;;5080283;28;20563;-71
2021/07/20 12:42:54;;;;;;;9.32;7.30;;;23.50;67.10;;;;;;5045322;28;20040;-71
2021/07/20 12:45:23;;;;;;;10.50;7.28;;;23.50;69.50;;;;;;5051172;28;20037;-71
2021/07/20 12:47:49;;;;;;;9.80;7.43;;;23.50;68.60;;;;;;5079883;28;20093;-72
2021/07/20 12:50:21;;;;;;;9.73;7.35;;;23.50;70.40;;;;;;5035789;28;20041;-68